Time;durP1;ratioP1;P1;durP2;ratioP2;P2;SDS_P1;SDS_P2;PMS_P1;PMS_P2;Temp;Humidity;BMP_temperature;BMP_pressure;BME280_temperature;BME280_humidity;BME280_pressure;Samples;Min_cycle;Max_cycle;Signal;HPM_P1;HPM_P2
2022/10/27 00:01:25;;;;;;;3.90;2.07;;;10.50;99.90;;;;;;5035233;28;20264;-87
2022/10/27 00:03:51;;;;;;;9.67;3.50;;;10.40;99.90;;;;;;5035317;28;20444;-86
2022/10/27 00:06:17;;;;;;;3.00;2.40;;;10.50;99.90;;;;;;5036300;28;20178;-85
2022/10/27 00:08:42;;;;;;;5.07;2.00;;;10.40;99.90;;;;;;5035171;28;20271;-86
2022/10/27 00:11:08;;;;;;;2.83;2.10;;;10.40;99.90;;;;;;5036110;28;20451;-86
2022/10/27 00:13:34;;;;;;;3.77;2.00;;;10.40;99.90;;;;;;5035980;28;20630;-87
2022/10/27 00:16:20;;;;;;;4.47;2.60;;;10.40;99.90;;;;;;5036144;28;20729;-86
2022/10/27 00:18:46;;;;;;;5.37;2.67;;;10.30;99.90;;;;;;5034610;28;20422;-86
2022/10/27 00:21:14;;;;;;;4.23;2.57;;;10.40;99.90;;;;;;5034983;28;20425;-85
2022/10/27 00:23:40;;;;;;;3.80;2.60;;;10.30;99.90;;;;;;5036036;28;20512;-86
2022/10/27 00:26:09;;;;;;;3.53;1.63;;;10.30;99.90;;;;;;5051371;28;20431;-86
2022/10/27 00:28:34;;;;;;;5.47;2.50;;;10.20;99.90;;;;;;5035603;28;20425;-85
2022/10/27 00:31:02;;;;;;;2.77;2.50;;;10.20;99.90;;;;;;5034601;28;20417;-86
2022/10/27 00:33:28;;;;;;;5.77;2.40;;;10.10;99.90;;;;;;5051135;28;20177;-86
2022/10/27 00:35:54;;;;;;;3.30;2.13;;;10.10;99.90;;;;;;5035122;28;20469;-86
2022/10/27 00:38:23;;;;;;;4.23;2.10;;;10.20;99.90;;;;;;5035797;28;20417;-85
2022/10/27 00:40:49;;;;;;;3.23;1.80;;;10.20;99.90;;;;;;5035769;28;20550;-86
2022/10/27 00:43:35;;;;;;;2.90;1.93;;;10.20;99.90;;;;;;5035426;28;20469;-86
2022/10/27 00:46:30;;;;;;;4.47;1.70;;;10.20;99.90;;;;;;5034353;28;20180;-86
2022/10/27 00:49:02;;;;;;;3.47;1.90;;;10.00;99.90;;;;;;5034425;28;20420;-85
2022/10/27 00:51:28;;;;;;;5.47;2.50;;;10.10;99.90;;;;;;5037474;28;21066;-85
2022/10/27 00:53:54;;;;;;;6.20;3.07;;;10.00;99.90;;;;;;5038290;28;20429;-85
2022/10/27 00:56:21;;;;;;;5.33;3.17;;;10.00;99.90;;;;;;5035112;28;21234;-86
2022/10/27 00:58:47;;;;;;;4.20;2.37;;;10.00;99.90;;;;;;5034692;28;20482;-86
2022/10/27 01:01:13;;;;;;;3.90;2.23;;;9.90;99.90;;;;;;5017079;28;20422;-85
2022/10/27 01:03:38;;;;;;;5.00;2.33;;;9.90;99.90;;;;;;5033412;28;20465;-86
2022/10/27 01:06:04;;;;;;;5.00;2.40;;;9.80;99.90;;;;;;5034938;28;20450;-85
2022/10/27 01:08:30;;;;;;;3.30;2.20;;;9.80;99.90;;;;;;5019544;28;20189;-86
2022/10/27 01:10:55;;;;;;;5.67;2.00;;;9.90;99.90;;;;;;5015289;28;20425;-86
2022/10/27 01:13:22;;;;;;;3.40;2.17;;;9.80;99.90;;;;;;5014978;28;20182;-87
2022/10/27 01:16:05;;;;;;;4.07;2.00;;;9.80;99.90;;;;;;5015326;28;20571;-86
2022/10/27 01:18:58;;;;;;;3.33;2.30;;;9.80;99.90;;;;;;5015149;28;20419;-85
2022/10/27 01:21:52;;;;;;;6.63;1.60;;;9.80;99.90;;;;;;5015127;28;20416;-85
2022/10/27 01:24:56;;;;;;;2.93;1.37;;;9.80;99.90;;;;;;5015368;28;20501;-86
2022/10/27 01:27:49;;;;;;;4.73;2.00;;;9.80;99.90;;;;;;5014636;28;20426;-85
2022/10/27 01:30:21;;;;;;;6.93;3.63;;;9.80;99.90;;;;;;5015012;28;20940;-86
2022/10/27 01:33:13;;;;;;;4.67;2.53;;;9.90;99.90;;;;;;5013787;28;20497;-87
2022/10/27 01:35:57;;;;;;;5.40;2.87;;;10.00;99.90;;;;;;5014976;28;20611;-85
2022/10/27 01:38:30;;;;;;;4.10;2.57;;;9.90;99.90;;;;;;4997477;28;20431;-86
2022/10/27 01:41:03;;;;;;;3.07;2.50;;;9.80;99.90;;;;;;5014758;28;20410;-85
2022/10/27 01:43:30;;;;;;;7.13;3.40;;;9.80;99.90;;;;;;5013309;28;20416;-87
2022/10/27 01:45:57;;;;;;;6.00;2.30;;;9.70;99.90;;;;;;4997176;28;20771;-86
2022/10/27 01:48:22;;;;;;;4.33;3.17;;;9.70;99.90;;;;;;4996230;28;20436;-86
2022/10/27 01:50:48;;;;;;;3.60;2.03;;;9.70;99.90;;;;;;5014571;28;20630;-86
2022/10/27 01:53:13;;;;;;;3.37;2.23;;;9.60;99.90;;;;;;5014687;28;20178;-85
2022/10/27 01:56:04;;;;;;;5.30;2.40;;;9.50;99.90;;;;;;4996954;28;20321;-87
2022/10/27 01:58:39;;;;;;;3.03;1.00;;;9.50;99.90;;;;;;5013002;28;20184;-85
2022/10/27 02:01:10;;;;;;;2.23;1.07;;;9.40;99.90;;;;;;5014514;28;20404;-85
2022/10/27 02:03:55;;;;;;;3.43;1.43;;;9.40;99.90;;;;;;5014486;28;20411;-85
2022/10/27 02:06:37;;;;;;;2.77;1.20;;;9.40;99.90;;;;;;4996866;28;20430;-84
2022/10/27 02:09:23;;;;;;;3.50;1.23;;;9.40;99.90;;;;;;5025699;28;20415;-86
2022/10/27 02:11:51;;;;;;;3.60;1.30;;;9.30;99.90;;;;;;5039012;28;20415;-86
2022/10/27 02:14:18;;;;;;;2.50;1.70;;;9.30;99.90;;;;;;5022693;28;20430;-85
2022/10/27 02:16:49;;;;;;;2.03;0.83;;;9.20;99.90;;;;;;5022458;28;20463;-86
2022/10/27 02:19:24;;;;;;;2.60;1.40;;;9.30;99.90;;;;;;5010178;28;20426;-85
2022/10/27 02:21:53;;;;;;;3.30;2.13;;;9.30;99.90;;;;;;5014858;28;20417;-85
2022/10/27 02:24:20;;;;;;;4.27;2.57;;;9.30;99.90;;;;;;4996907;28;20449;-84
2022/10/27 02:27:21;;;;;;;2.50;1.30;;;9.40;99.90;;;;;;4996471;28;20418;-86
2022/10/27 02:29:48;;;;;;;4.10;2.03;;;9.40;99.90;;;;;;5013977;28;21057;-86
2022/10/27 02:32:20;;;;;;;3.90;2.60;;;9.40;99.90;;;;;;5013962;28;20446;-85
2022/10/27 02:34:48;;;;;;;3.17;2.00;;;9.40;99.90;;;;;;5013733;28;20501;-85
2022/10/27 02:37:24;;;;;;;5.80;2.23;;;9.50;99.90;;;;;;5013849;28;20572;-86
2022/10/27 02:39:50;;;;;;;4.13;2.30;;;9.50;99.90;;;;;;5014106;28;20498;-86
2022/10/27 02:42:16;;;;;;;6.03;3.47;;;9.50;99.90;;;;;;5012947;28;20993;-87
2022/10/27 02:44:41;;;;;;;4.67;2.47;;;9.50;99.90;;;;;;5013690;28;20187;-86
2022/10/27 02:47:07;;;;;;;4.97;2.87;;;9.60;99.90;;;;;;5013650;28;20181;-86
2022/10/27 02:49:32;;;;;;;3.10;2.23;;;9.50;99.90;;;;;;5013205;28;20246;-86
2022/10/27 02:51:58;;;;;;;3.50;1.70;;;9.40;99.90;;;;;;5013624;28;20589;-86
2022/10/27 02:54:23;;;;;;;4.13;2.07;;;9.30;99.90;;;;;;5013734;28;20256;-86
2022/10/27 02:56:49;;;;;;;5.57;3.27;;;9.30;99.90;;;;;;5013292;28;20183;-86
2022/10/27 02:59:14;;;;;;;3.50;2.13;;;9.40;99.90;;;;;;5013466;28;20527;-86
2022/10/27 03:01:40;;;;;;;4.73;2.10;;;9.40;99.90;;;;;;5012366;28;20178;-86
2022/10/27 03:04:05;;;;;;;3.87;1.90;;;9.30;99.90;;;;;;5012258;28;20174;-86
2022/10/27 03:06:31;;;;;;;4.50;2.67;;;9.30;99.90;;;;;;5013393;28;20659;-86
2022/10/27 03:08:56;;;;;;;5.50;2.40;;;9.20;99.90;;;;;;5012678;28;20178;-86
2022/10/27 03:11:22;;;;;;;2.33;1.13;;;9.20;99.90;;;;;;5012387;28;20708;-87
2022/10/27 03:13:47;;;;;;;3.87;1.50;;;9.10;99.90;;;;;;5012823;28;20183;-87
2022/10/27 03:16:12;;;;;;;2.10;1.70;;;9.00;99.90;;;;;;5012593;28;20224;-86
2022/10/27 03:18:38;;;;;;;5.10;1.70;;;9.00;99.90;;;;;;5013328;28;20171;-86
2022/10/27 03:21:03;;;;;;;3.30;1.90;;;9.00;99.90;;;;;;5013397;28;20302;-86
2022/10/27 03:23:29;;;;;;;2.87;1.90;;;9.00;99.90;;;;;;5029580;28;20171;-86
2022/10/27 03:25:54;;;;;;;3.80;2.17;;;8.90;99.90;;;;;;5033027;28;20263;-86
2022/10/27 03:28:20;;;;;;;4.80;1.90;;;9.00;99.90;;;;;;5032709;28;20197;-86
2022/10/27 03:30:45;;;;;;;2.30;1.77;;;9.00;99.90;;;;;;5032801;28;20187;-85
2022/10/27 03:33:11;;;;;;;5.73;2.93;;;8.90;99.90;;;;;;5032986;28;20172;-86
2022/10/27 03:35:36;;;;;;;2.70;1.70;;;8.90;99.90;;;;;;5032823;28;20238;-86
2022/10/27 03:38:02;;;;;;;2.57;1.60;;;9.00;99.90;;;;;;5033044;28;20237;-85
2022/10/27 03:40:28;;;;;;;4.40;2.37;;;9.00;99.90;;;;;;5032923;28;20173;-85
2022/10/27 03:42:57;;;;;;;4.23;2.40;;;9.00;99.90;;;;;;5032509;28;20175;-85
2022/10/27 03:45:26;;;;;;;2.13;1.93;;;8.90;99.90;;;;;;5032889;28;20479;-85
2022/10/27 03:48:04;;;;;;;4.10;1.90;;;8.80;99.90;;;;;;5015156;28;20421;-85
2022/10/27 03:50:30;;;;;;;6.23;2.00;;;8.80;99.90;;;;;;5032566;28;20448;-85
2022/10/27 03:52:55;;;;;;;5.10;1.60;;;8.80;99.90;;;;;;5031468;28;20802;-84
2022/10/27 03:55:21;;;;;;;5.43;1.40;;;8.80;99.90;;;;;;5032700;28;20294;-85
2022/10/27 03:57:47;;;;;;;2.77;1.40;;;8.70;99.90;;;;;;5032385;28;20176;-85
2022/10/27 04:00:14;;;;;;;3.67;1.53;;;8.70;99.90;;;;;;5032847;28;20419;-86
2022/10/27 04:02:39;;;;;;;3.80;1.70;;;8.70;99.90;;;;;;5031507;28;20168;-87
2022/10/27 04:05:05;;;;;;;3.00;1.83;;;8.70;99.90;;;;;;5031585;28;20426;-88
2022/10/27 04:07:30;;;;;;;2.00;0.90;;;8.60;99.90;;;;;;5032958;28;20643;-87
2022/10/27 04:09:56;;;;;;;2.73;1.40;;;8.60;99.90;;;;;;5015332;28;20178;-86
2022/10/27 04:12:21;;;;;;;3.00;1.70;;;8.60;99.90;;;;;;5035220;28;20175;-88
2022/10/27 04:14:49;;;;;;;2.70;1.80;;;8.60;99.90;;;;;;5036286;28;20207;-87
2022/10/27 04:17:15;;;;;;;8.40;2.13;;;8.70;99.90;;;;;;5036307;28;20202;-86
2022/10/27 04:19:41;;;;;;;2.93;1.40;;;8.70;99.90;;;;;;5036522;28;20409;-86
2022/10/27 04:22:06;;;;;;;2.40;1.77;;;8.70;99.90;;;;;;5036256;28;20941;-86
2022/10/27 04:24:32;;;;;;;2.90;2.03;;;8.70;99.90;;;;;;5051739;28;20167;-86
2022/10/27 04:26:57;;;;;;;3.43;2.43;;;8.60;99.90;;;;;;5034609;28;20192;-86
2022/10/27 04:29:23;;;;;;;3.20;1.60;;;8.60;99.90;;;;;;5051538;28;20219;-86
2022/10/27 04:31:48;;;;;;;3.80;2.30;;;8.50;99.90;;;;;;5034708;28;20184;-86
2022/10/27 04:34:14;;;;;;;2.40;1.60;;;8.50;99.90;;;;;;5035983;28;20686;-86
2022/10/27 04:36:39;;;;;;;3.53;1.60;;;8.50;99.90;;;;;;5034637;28;20701;-85
2022/10/27 04:39:05;;;;;;;4.30;1.60;;;8.50;99.90;;;;;;5035889;28;20232;-86
2022/10/27 04:41:31;;;;;;;2.60;1.50;;;8.50;99.90;;;;;;5035616;28;20178;-86
2022/10/27 04:43:56;;;;;;;4.80;2.10;;;8.60;99.90;;;;;;5035897;28;20248;-86
2022/10/27 04:46:22;;;;;;;2.40;1.60;;;8.60;99.90;;;;;;5035742;28;20185;-87
2022/10/27 04:48:47;;;;;;;2.63;1.73;;;8.50;99.90;;;;;;5050856;28;20185;-85
2022/10/27 04:51:13;;;;;;;6.40;1.67;;;8.50;99.90;;;;;;5035696;28;20218;-86
2022/10/27 04:53:38;;;;;;;4.00;2.00;;;8.50;99.90;;;;;;5035718;28;20175;-86
2022/10/27 04:56:04;;;;;;;3.80;2.27;;;8.50;99.90;;;;;;5050942;28;20215;-85
2022/10/27 04:58:30;;;;;;;4.00;2.20;;;8.50;99.90;;;;;;5050372;28;20689;-86
2022/10/27 05:00:55;;;;;;;6.47;3.20;;;8.50;99.90;;;;;;5034180;28;20201;-86
2022/10/27 05:03:21;;;;;;;8.27;3.60;;;8.60;99.90;;;;;;5035033;28;20641;-86
2022/10/27 05:05:46;;;;;;;6.20;3.60;;;8.60;99.90;;;;;;5050713;28;20179;-86
2022/10/27 05:08:12;;;;;;;4.70;2.60;;;8.60;99.90;;;;;;5034163;28;20643;-86
2022/10/27 05:10:37;;;;;;;5.57;3.33;;;8.50;99.90;;;;;;5035331;28;20179;-86
2022/10/27 05:13:03;;;;;;;4.90;3.27;;;8.50;99.90;;;;;;5034874;28;20203;-87
2022/10/27 05:15:29;;;;;;;7.03;3.30;;;8.50;99.90;;;;;;5035187;28;20203;-86
2022/10/27 05:17:55;;;;;;;6.77;3.70;;;8.50;99.90;;;;;;5035058;28;20426;-86
2022/10/27 05:20:21;;;;;;;6.53;3.57;;;8.50;99.90;;;;;;5035121;28;20433;-87
2022/10/27 05:22:47;;;;;;;5.57;3.23;;;8.50;99.90;;;;;;5034886;28;20647;-86
2022/10/27 05:25:12;;;;;;;7.23;3.33;;;8.50;99.90;;;;;;5035152;28;20410;-86
2022/10/27 05:27:38;;;;;;;5.77;3.17;;;8.60;99.90;;;;;;5034455;28;20172;-85
2022/10/27 05:30:05;;;;;;;4.53;2.80;;;8.60;99.90;;;;;;5034685;28;20235;-84
2022/10/27 05:32:30;;;;;;;6.47;3.90;;;8.60;99.90;;;;;;5034310;28;20190;-84
2022/10/27 05:34:56;;;;;;;9.27;4.53;;;8.60;99.90;;;;;;5034680;28;20462;-85
2022/10/27 05:37:22;;;;;;;6.53;3.43;;;8.60;99.90;;;;;;5034806;28;20195;-85
2022/10/27 05:39:48;;;;;;;5.30;2.43;;;8.50;99.90;;;;;;5034627;28;20502;-85
2022/10/27 05:42:13;;;;;;;5.47;3.07;;;8.50;99.90;;;;;;5035781;28;20268;-85
2022/10/27 05:44:39;;;;;;;8.43;3.50;;;8.50;99.90;;;;;;5036766;28;20183;-86
2022/10/27 05:47:04;;;;;;;6.67;3.23;;;8.50;99.90;;;;;;5036022;28;20189;-86
2022/10/27 05:49:30;;;;;;;6.67;3.23;;;8.60;99.90;;;;;;5035309;28;20206;-85
2022/10/27 05:51:55;;;;;;;8.73;4.60;;;8.60;99.90;;;;;;5036208;28;20190;-86
2022/10/27 05:54:21;;;;;;;5.83;3.83;;;8.60;99.90;;;;;;5036460;28;20538;-87
2022/10/27 05:56:49;;;;;;;8.20;4.00;;;8.70;99.90;;;;;;5034822;28;20216;-87
2022/10/27 05:59:14;;;;;;;6.30;4.77;;;9.00;99.90;;;;;;5034730;28;20557;-86
2022/10/27 06:01:40;;;;;;;6.97;4.80;;;9.00;99.90;;;;;;5051136;28;20943;-86
2022/10/27 06:04:05;;;;;;;5.60;3.27;;;8.90;99.90;;;;;;5035802;28;20174;-87
2022/10/27 06:06:31;;;;;;;5.40;3.27;;;9.00;99.90;;;;;;5036889;28;20168;-85
2022/10/27 06:08:57;;;;;;;5.43;3.53;;;8.80;99.90;;;;;;5052511;28;20180;-86
2022/10/27 06:11:22;;;;;;;8.33;3.13;;;8.70;99.90;;;;;;5036805;28;20208;-87
2022/10/27 06:13:50;;;;;;;7.70;4.03;;;8.80;99.90;;;;;;5037044;28;20179;-85
2022/10/27 06:16:16;;;;;;;6.77;2.70;;;8.90;99.90;;;;;;5036779;28;20210;-86
2022/10/27 06:18:41;;;;;;;4.27;3.03;;;8.80;99.90;;;;;;5053899;28;20468;-87
2022/10/27 06:21:07;;;;;;;5.37;2.70;;;9.10;99.90;;;;;;5038673;28;20500;-85
2022/10/27 06:23:33;;;;;;;5.63;3.30;;;8.90;99.90;;;;;;5037517;28;20608;-85
2022/10/27 06:25:58;;;;;;;6.17;3.50;;;9.10;99.90;;;;;;5035623;28;20198;-86
2022/10/27 06:28:24;;;;;;;5.80;3.13;;;9.50;99.90;;;;;;5035077;28;20269;-86
2022/10/27 06:30:50;;;;;;;6.53;3.83;;;10.10;99.90;;;;;;5035160;28;20523;-85
2022/10/27 06:33:16;;;;;;;7.00;4.00;;;10.40;99.90;;;;;;5034960;28;20168;-85
2022/10/27 06:35:44;;;;;;;6.00;3.40;;;10.40;99.90;;;;;;5049917;28;20484;-85
2022/10/27 06:38:15;;;;;;;5.20;3.60;;;10.40;99.90;;;;;;5035451;28;20246;-86
2022/10/27 06:40:44;;;;;;;5.70;4.90;;;10.50;99.90;;;;;;5034805;28;20875;-85
2022/10/27 06:43:10;;;;;;;7.40;4.93;;;10.50;99.90;;;;;;5033424;28;20431;-85
2022/10/27 06:45:36;;;;;;;6.37;4.60;;;10.60;99.90;;;;;;5033439;28;20415;-86
2022/10/27 06:48:02;;;;;;;5.23;3.20;;;10.60;99.90;;;;;;5032022;28;20421;-86
2022/10/27 06:50:28;;;;;;;13.83;4.50;;;10.60;99.90;;;;;;5031197;28;20243;-85
2022/10/27 06:52:54;;;;;;;8.73;4.47;;;10.60;99.90;;;;;;5048847;28;20415;-85
2022/10/27 06:55:20;;;;;;;5.70;3.80;;;10.70;99.90;;;;;;5033470;28;20479;-86
2022/10/27 06:57:45;;;;;;;5.67;3.73;;;10.80;99.90;;;;;;5031934;28;20211;-86
2022/10/27 07:00:12;;;;;;;5.97;4.00;;;10.90;99.90;;;;;;5033311;28;20180;-86
2022/10/27 07:02:37;;;;;;;7.93;4.00;;;10.90;99.90;;;;;;5031996;28;20659;-86
2022/10/27 07:05:04;;;;;;;7.73;5.07;;;11.00;99.90;;;;;;5033176;28;20446;-86
2022/10/27 07:07:30;;;;;;;9.17;4.87;;;11.10;99.90;;;;;;5033185;28;20261;-87
2022/10/27 07:09:55;;;;;;;5.70;4.80;;;11.10;99.90;;;;;;5048460;28;20964;-87
2022/10/27 07:12:21;;;;;;;11.60;5.57;;;11.10;99.90;;;;;;5031471;28;20187;-86
2022/10/27 07:14:46;;;;;;;6.20;4.43;;;11.20;99.90;;;;;;5032981;28;20617;-87
2022/10/27 07:17:11;;;;;;;9.80;5.03;;;11.20;99.90;;;;;;5048335;28;20219;-87
2022/10/27 07:19:37;;;;;;;7.67;4.50;;;11.20;99.90;;;;;;5032973;28;20183;-87
2022/10/27 07:22:02;;;;;;;7.90;4.97;;;11.20;99.90;;;;;;5033053;28;20169;-86
2022/10/27 07:24:28;;;;;;;7.73;4.73;;;11.30;99.90;;;;;;5031668;28;20268;-85
2022/10/27 07:26:53;;;;;;;7.00;4.13;;;11.40;99.90;;;;;;5032590;28;20174;-86
2022/10/27 07:29:19;;;;;;;12.50;5.50;;;11.40;99.90;;;;;;5032887;28;20170;-85
2022/10/27 07:31:46;;;;;;;6.73;4.77;;;11.50;99.90;;;;;;5031612;28;20280;-86
2022/10/27 07:34:11;;;;;;;6.60;5.90;;;11.50;99.90;;;;;;5032859;28;20169;-86
2022/10/27 07:36:37;;;;;;;7.27;4.80;;;11.60;99.90;;;;;;5048104;28;20501;-85
2022/10/27 07:39:03;;;;;;;7.93;4.93;;;11.60;99.90;;;;;;5032927;28;20204;-86
2022/10/27 07:41:29;;;;;;;7.07;5.40;;;11.70;99.90;;;;;;5032538;28;20181;-86
2022/10/27 07:43:54;;;;;;;7.20;5.20;;;11.90;99.90;;;;;;5032660;28;20416;-85
2022/10/27 07:46:20;;;;;;;13.00;5.53;;;11.90;99.90;;;;;;5049318;28;20623;-87
2022/10/27 07:48:45;;;;;;;12.47;6.50;;;12.00;99.90;;;;;;5036683;28;20176;-87
2022/10/27 07:51:10;;;;;;;9.67;5.00;;;12.10;99.90;;;;;;5035267;28;20229;-86
2022/10/27 07:53:36;;;;;;;8.20;5.27;;;12.30;99.90;;;;;;5048725;28;20170;-86
2022/10/27 07:56:02;;;;;;;9.03;4.47;;;12.20;99.90;;;;;;5059784;28;20279;-86
2022/10/27 07:58:27;;;;;;;8.97;5.10;;;12.40;99.90;;;;;;5062034;28;20151;-88
2022/10/27 08:00:53;;;;;;;8.27;5.13;;;12.30;99.90;;;;;;5061350;28;20187;-86
2022/10/27 08:03:21;;;;;;;7.47;4.80;;;12.40;99.90;;;;;;5053068;28;20257;-86
2022/10/27 08:05:47;;;;;;;6.83;3.90;;;12.40;99.90;;;;;;5036748;28;20187;-87
2022/10/27 08:08:14;;;;;;;5.20;4.07;;;12.40;99.90;;;;;;5036530;28;20433;-86
2022/10/27 08:10:41;;;;;;;6.93;4.20;;;12.70;99.90;;;;;;5051397;28;20524;-87
2022/10/27 08:13:08;;;;;;;6.73;4.23;;;13.00;99.90;;;;;;5035006;28;20414;-86
2022/10/27 08:15:35;;;;;;;6.17;4.30;;;12.90;99.90;;;;;;5051441;28;20915;-87
2022/10/27 08:18:02;;;;;;;6.37;4.40;;;12.90;99.90;;;;;;5036257;28;20777;-86
2022/10/27 08:20:31;;;;;;;4.63;3.70;;;13.10;99.90;;;;;;5036033;28;20413;-86
2022/10/27 08:23:01;;;;;;;6.63;3.27;;;13.60;99.90;;;;;;5036128;28;20424;-87
2022/10/27 08:25:27;;;;;;;6.80;4.20;;;13.30;99.90;;;;;;5034667;28;20895;-86
2022/10/27 08:27:53;;;;;;;7.77;4.33;;;13.30;99.90;;;;;;5035576;28;20526;-86
2022/10/27 08:30:20;;;;;;;6.00;4.63;;;13.80;99.90;;;;;;5035893;28;20473;-86
2022/10/27 08:32:48;;;;;;;7.37;5.03;;;14.70;99.90;;;;;;5035846;28;20418;-86
2022/10/27 08:35:15;;;;;;;9.93;5.43;;;16.40;99.90;;;;;;5035791;28;20877;-87
2022/10/27 08:37:41;;;;;;;5.47;3.97;;;17.20;28.50;;;;;;5035658;28;20423;-86
2022/10/27 08:40:08;;;;;;;6.20;3.63;;;16.60;99.90;;;;;;5034476;28;20917;-87
2022/10/27 08:42:45;;;;;;;7.60;4.30;;;16.40;99.90;;;;;;5035452;28;20174;-87
2022/10/27 08:45:17;;;;;;;4.80;3.57;;;16.60;99.90;;;;;;5035658;28;21001;-86
2022/10/27 08:47:43;;;;;;;6.90;3.30;;;16.90;99.90;;;;;;5050948;28;20788;-88
2022/10/27 08:50:17;;;;;;;4.77;3.33;;;16.90;99.90;;;;;;5035319;28;20476;-86
2022/10/27 08:52:53;;;;;;;4.53;3.03;;;17.30;80.10;;;;;;5051004;28;20435;-88
2022/10/27 08:55:33;;;;;;;6.67;2.80;;;17.50;1.00;;;;;;5034152;28;20531;-86
2022/10/27 08:58:23;;;;;;;3.10;2.57;;;17.70;1.00;;;;;;5035010;28;20412;-86
2022/10/27 09:00:58;;;;;;;4.17;3.73;;;17.30;24.10;;;;;;5032158;28;20425;-87
2022/10/27 09:03:50;;;;;;;5.20;2.87;;;17.00;99.90;;;;;;5035404;28;20902;-88
2022/10/27 09:06:32;;;;;;;4.97;3.27;;;17.00;99.90;;;;;;5035374;28;20753;-87
2022/10/27 09:09:12;;;;;;;4.50;3.90;;;17.80;1.00;;;;;;5050736;28;20937;-88
2022/10/27 09:12:01;;;;;;;3.70;2.83;;;19.20;99.90;;;;;;5034833;28;20775;-88
2022/10/27 09:14:29;;;;;;;6.10;3.50;;;20.20;1.00;;;;;;5035174;28;20467;-88
2022/10/27 09:17:02;;;;;;;4.53;3.10;;;20.30;99.90;;;;;;5034966;28;20479;-86
2022/10/27 09:19:38;;;;;;;3.73;2.53;;;20.50;1.00;;;;;;5035119;28;20405;-86
2022/10/27 09:22:09;;;;;;;3.93;2.70;;;20.20;1.00;;;;;;5035122;28;20421;-86
2022/10/27 09:24:37;;;;;;;4.40;2.90;;;20.30;1.00;;;;;;5035043;28;20441;-86
2022/10/27 09:27:04;;;;;;;5.77;3.30;;;20.30;1.00;;;;;;5034662;28;20794;-85
2022/10/27 09:29:34;;;;;;;3.07;2.70;;;20.40;99.90;;;;;;5034990;28;20894;-86
2022/10/27 09:32:22;;;;;;;3.90;2.23;;;20.40;94.20;;;;;;5034855;28;20401;-87
2022/10/27 09:35:08;;;;;;;3.13;2.83;;;20.90;1.00;;;;;;5050285;28;20942;-88
2022/10/27 09:37:39;;;;;;;5.00;3.03;;;21.10;99.90;;;;;;5034723;28;20436;-89
2022/10/27 09:40:10;;;;;;;3.23;2.30;;;21.20;1.00;;;;;;5050119;28;20455;-89
2022/10/27 09:42:35;;;;;;;6.23;2.63;;;21.40;1.00;;;;;;5033357;28;20429;-88
2022/10/27 09:45:02;;;;;;;4.00;3.13;;;21.80;1.00;;;;;;5049837;28;20838;-88
2022/10/27 09:47:36;;;;;;;5.57;3.30;;;21.50;99.90;;;;;;5034501;28;20277;-89
2022/10/27 09:50:05;;;;;;;4.43;2.70;;;21.00;99.90;;;;;;5034375;28;20475;-88
2022/10/27 09:52:39;;;;;;;3.10;2.50;;;21.20;1.00;;;;;;5034357;28;20412;-90
2022/10/27 09:55:05;;;;;;;3.33;2.50;;;21.00;99.90;;;;;;5034343;28;20466;-89
2022/10/27 09:57:34;;;;;;;4.07;2.50;;;20.50;99.90;;;;;;5033081;28;20433;-88
2022/10/27 10:00:07;;;;;;;4.57;2.67;;;20.60;1.00;;;;;;5034308;28;20409;-89
2022/10/27 10:02:37;;;;;;;4.67;2.67;;;20.50;1.00;;;;;;5034270;28;20425;-90
2022/10/27 10:05:18;;;;;;;5.67;2.60;;;20.60;1.00;;;;;;5032950;28;20422;-88
2022/10/27 10:07:45;;;;;;;4.53;3.63;;;20.50;1.00;;;;;;5034248;28;20409;-88
2022/10/27 10:10:26;;;;;;;4.00;3.17;;;20.00;99.90;;;;;;5031904;28;20551;-88
2022/10/27 10:13:11;;;;;;;4.53;2.53;;;20.10;99.90;;;;;;5049480;28;20420;-89
2022/10/27 10:15:45;;;;;;;10.00;2.73;;;19.90;1.00;;;;;;5033879;28;20464;-88
2022/10/27 10:18:24;;;;;;;4.87;3.20;;;20.10;1.00;;;;;;5034014;28;20420;-87
2022/10/27 10:21:03;;;;;;;4.23;3.27;;;20.20;99.90;;;;;;5033988;28;20405;-86
2022/10/27 10:23:32;;;;;;;4.83;2.30;;;21.10;99.90;;;;;;5032702;28;20483;-87
2022/10/27 10:26:00;;;;;;;3.97;1.80;;;21.20;99.90;;;;;;5033492;28;20408;-88
2022/10/27 10:28:36;;;;;;;2.50;1.83;;;20.40;99.90;;;;;;5033728;28;20468;-87
2022/10/27 10:31:05;;;;;;;2.80;1.83;;;20.10;99.90;;;;;;5033566;28;20462;-85
2022/10/27 10:33:40;;;;;;;3.77;2.20;;;20.20;1.00;;;;;;5032640;28;20429;-86
2022/10/27 10:36:27;;;;;;;5.03;1.80;;;20.10;99.90;;;;;;5033598;28;20513;-85
2022/10/27 10:38:55;;;;;;;5.60;2.20;;;20.20;99.90;;;;;;5033586;28;20463;-84
2022/10/27 10:41:22;;;;;;;4.70;2.40;;;19.70;1.00;;;;;;5033191;28;20477;-86
2022/10/27 10:44:06;;;;;;;2.40;1.23;;;19.50;1.00;;;;;;5032404;28;20417;-87
2022/10/27 10:46:33;;;;;;;5.50;1.83;;;19.40;1.00;;;;;;5032257;28;20452;-87
2022/10/27 10:48:59;;;;;;;3.07;1.80;;;18.90;1.00;;;;;;5033345;28;20482;-86
2022/10/27 10:51:28;;;;;;;2.00;1.23;;;19.00;27.40;;;;;;5048527;28;20480;-88
2022/10/27 10:53:59;;;;;;;4.30;2.20;;;19.30;32.20;;;;;;5032133;28;20824;-87
2022/10/27 10:56:28;;;;;;;3.13;2.13;;;19.20;14.00;;;;;;5033018;28;20475;-87
2022/10/27 10:59:13;;;;;;;5.43;1.83;;;18.90;99.90;;;;;;5033217;28;20411;-87
2022/10/27 11:01:51;;;;;;;4.63;2.13;;;19.10;46.00;;;;;;5033282;28;21100;-87
2022/10/27 11:04:21;;;;;;;2.40;2.20;;;19.20;10.20;;;;;;5032951;28;20921;-87
2022/10/27 11:06:58;;;;;;;2.63;1.37;;;19.10;36.60;;;;;;5031960;28;20431;-86
2022/10/27 11:09:27;;;;;;;4.10;1.93;;;19.10;25.90;;;;;;5048530;28;20427;-86
2022/10/27 11:11:54;;;;;;;4.23;1.87;;;19.20;29.60;;;;;;5032779;28;20484;-89
2022/10/27 11:14:23;;;;;;;4.50;1.60;;;19.20;49.50;;;;;;5033102;28;20481;-87
2022/10/27 11:16:54;;;;;;;3.30;1.53;;;19.10;99.90;;;;;;5033102;28;20560;-87
2022/10/27 11:19:21;;;;;;;4.70;2.23;;;19.40;99.90;;;;;;5032977;28;20417;-87
2022/10/27 11:22:03;;;;;;;2.00;1.60;;;19.50;30.80;;;;;;5035492;28;20773;-88
2022/10/27 11:24:43;;;;;;;5.43;1.37;;;19.50;41.00;;;;;;5037239;28;20477;-87
2022/10/27 11:27:26;;;;;;;5.30;1.20;;;19.50;4.20;;;;;;5036831;28;20414;-87
2022/10/27 11:30:12;;;;;;;3.60;1.50;;;19.50;35.60;;;;;;5037236;28;20418;-87
2022/10/27 11:32:46;;;;;;;4.93;1.80;;;19.60;2.80;;;;;;5037157;28;20921;-87
2022/10/27 11:35:36;;;;;;;2.17;1.10;;;19.90;1.00;;;;;;5037022;28;20500;-88
2022/10/27 11:38:27;;;;;;;4.57;1.10;;;20.10;1.00;;;;;;5037013;28;20951;-87
2022/10/27 11:41:04;;;;;;;2.80;2.17;;;20.30;1.00;;;;;;5036828;28;20419;-88
2022/10/27 11:43:38;;;;;;;4.50;1.30;;;20.20;1.00;;;;;;5037009;28;20418;-88
2022/10/27 11:46:13;;;;;;;3.47;1.17;;;20.20;1.00;;;;;;5036891;28;20407;-89
2022/10/27 11:48:46;;;;;;;4.07;1.63;;;20.40;1.00;;;;;;5036725;28;20420;-87
2022/10/27 11:51:34;;;;;;;4.30;0.77;;;20.40;1.00;;;;;;5035254;28;20468;-87
2022/10/27 11:54:00;;;;;;;3.40;1.30;;;20.50;1.00;;;;;;5036886;28;20508;-88
2022/10/27 11:56:49;;;;;;;2.30;1.10;;;20.50;1.00;;;;;;5034950;28;21024;-87
2022/10/27 11:59:49;;;;;;;1.60;0.20;;;20.90;1.00;;;;;;5036558;28;20419;-87
2022/10/27 12:02:39;;;;;;;3.53;1.23;;;20.90;14.00;;;;;;5017268;28;20511;-87
2022/10/27 12:05:18;;;;;;;2.57;1.00;;;20.50;1.00;;;;;;5036634;28;20419;-86
2022/10/27 12:08:21;;;;;;;3.80;0.90;;;20.40;1.00;;;;;;5036669;28;20450;-88
2022/10/27 12:11:06;;;;;;;3.40;0.90;;;20.50;1.00;;;;;;5034932;28;20423;-88
2022/10/27 12:13:46;;;;;;;3.13;0.63;;;20.40;1.00;;;;;;5051837;28;20515;-87
2022/10/27 12:16:39;;;;;;;3.73;0.73;;;20.40;1.00;;;;;;5036226;28;20529;-86
2022/10/27 12:19:27;;;;;;;5.37;0.73;;;20.40;1.00;;;;;;5036404;28;20455;-87
2022/10/27 12:22:24;;;;;;;2.33;0.50;;;20.40;1.00;;;;;;5036488;28;20749;-87
2022/10/27 12:25:04;;;;;;;2.93;1.13;;;20.40;1.00;;;;;;5036093;28;20505;-89
2022/10/27 12:27:38;;;;;;;4.20;0.70;;;20.30;1.00;;;;;;5035200;28;20896;-86
2022/10/27 12:30:19;;;;;;;3.40;0.77;;;20.30;1.00;;;;;;5035025;28;20423;-87
2022/10/27 12:32:50;;;;;;;1.53;0.50;;;20.30;1.00;;;;;;5050552;28;20429;-87
2022/10/27 12:35:34;;;;;;;2.93;0.40;;;20.40;1.00;;;;;;5034632;28;20874;-88
2022/10/27 12:38:17;;;;;;;3.77;0.27;;;20.50;1.00;;;;;;5034877;28;20424;-89
2022/10/27 12:40:52;;;;;;;1.67;0.63;;;20.50;1.00;;;;;;5035419;28;20420;-87
2022/10/27 12:43:36;;;;;;;5.93;0.80;;;20.50;1.00;;;;;;5051273;28;20458;-88
2022/10/27 12:46:29;;;;;;;3.93;1.50;;;20.50;1.00;;;;;;5035713;28;20422;-88
2022/10/27 12:49:19;;;;;;;5.00;1.37;;;20.40;49.80;;;;;;5035583;28;20426;-87
2022/10/27 12:51:58;;;;;;;3.77;1.57;;;20.30;99.90;;;;;;5035634;28;20451;-87
2022/10/27 12:55:01;;;;;;;4.50;1.77;;;20.40;99.90;;;;;;5034485;28;20560;-88
2022/10/27 12:57:48;;;;;;;2.10;1.90;;;20.40;71.20;;;;;;5034256;28;20430;-89
2022/10/27 13:00:19;;;;;;;6.67;1.97;;;20.30;87.60;;;;;;5034268;28;20909;-87
2022/10/27 13:02:57;;;;;;;4.53;1.20;;;20.20;99.90;;;;;;5035457;28;20415;-87
2022/10/27 13:06:00;;;;;;;3.33;0.90;;;20.30;99.90;;;;;;5034208;28;20752;-87
2022/10/27 13:08:44;;;;;;;2.30;0.60;;;20.20;21.40;;;;;;5034058;28;20434;-87
2022/10/27 13:11:51;;;;;;;1.17;0.47;;;20.30;1.00;;;;;;5034363;28;20421;-88
2022/10/27 13:14:48;;;;;;;1.50;0.30;;;20.30;99.90;;;;;;5035687;28;20411;-86